Terminal Aerodrome Forecast
Issued by NWS Cleveland, OH

Home | Current Version | Previous Version | Graphics & Text | Print | Product List | Glossary On
Versions: 1 2 3 4 5 6 7 8 9 10 11 12 13 14 15 16 17 18 19 20 21 22 23 24 25 26 27 28 29
000
FTUS41 KCLE 151900 AAA
TAFCLE
TAF AMD
KCLE 151957Z 1520/1624 16006KT P6SM FEW025 BKN250
     FM160500 14007KT 5SM -RA BR BKN030 OVC060
     FM161100 16011KT 3SM -RA BR OVC012
     FM161700 21010KT 3SM -RA BR OVC009=

USA.gov is the U.S. government's official web portal to all federal, state and local government web resources and services.